createdAt,value
2022-11-24T00:02:17.543Z,92.21
2022-11-24T00:04:44.097Z,92.32
2022-11-24T00:07:10.687Z,91.21
2022-11-24T00:09:37.237Z,90.51
2022-11-24T00:12:03.880Z,90.66
2022-11-24T00:14:30.499Z,90.03
2022-11-24T00:16:57.118Z,90.85
2022-11-24T00:19:23.829Z,91.50
2022-11-24T00:21:50.398Z,88.02
2022-11-24T00:24:16.991Z,87.28
2022-11-24T00:26:43.481Z,89.16
2022-11-24T00:29:11.753Z,90.32
2022-11-24T00:31:42.430Z,87.63
2022-11-24T00:34:14.042Z,90.35
2022-11-24T00:36:41.853Z,90.80
2022-11-24T00:39:12.338Z,90.11
2022-11-24T00:41:39.337Z,91.33
2022-11-24T00:44:06.382Z,91.32
2022-11-24T00:46:33.639Z,90.63
2022-11-24T00:49:00.511Z,90.15
2022-11-24T00:51:29.794Z,92.04
2022-11-24T00:54:01.041Z,91.58
2022-11-24T00:56:29.704Z,90.56
2022-11-24T00:58:56.421Z,92.51
2022-11-24T01:01:25.557Z,91.58
2022-11-24T01:03:52.686Z,90.83
2022-11-24T01:06:21.634Z,91.82
2022-11-24T01:08:48.407Z,92.37
2022-11-24T01:11:20.036Z,92.11
2022-11-24T01:13:49.157Z,92.87
2022-11-24T01:16:31.275Z,93.29
2022-11-24T01:18:58.292Z,92.51
2022-11-24T01:21:25.139Z,92.40
2022-11-24T01:23:51.629Z,92.69
2022-11-24T01:26:22.256Z,93.40
2022-11-24T01:28:53.260Z,92.98
2022-11-24T01:31:19.777Z,92.77
2022-11-24T01:33:46.259Z,92.98
2022-11-24T01:36:13.468Z,93.17
2022-11-24T01:38:40.015Z,93.34
2022-11-24T01:41:15.208Z,92.15
2022-11-24T01:43:42.687Z,93.17
2022-11-24T01:46:28.485Z,92.55
2022-11-24T01:49:24.591Z,94.17
2022-11-24T01:52:09.265Z,94.99
2022-11-24T01:54:46.228Z,94.19
2022-11-24T01:57:42.777Z,94.84
2022-11-24T02:00:12.895Z,93.70
2022-11-24T02:02:39.663Z,94.06
2022-11-24T02:05:11.726Z,94.10
2022-11-24T02:07:38.552Z,94.05
2022-11-24T02:10:14.669Z,94.66
2022-11-24T02:12:45.030Z,94.31
2022-11-24T02:15:11.965Z,94.28
2022-11-24T02:17:38.520Z,94.45
2022-11-24T02:20:08.957Z,94.04
2022-11-24T02:22:54.722Z,93.27
2022-11-24T02:25:27.480Z,94.67
2022-11-24T02:27:55.967Z,93.70
2022-11-24T02:30:23.293Z,93.54
2022-11-24T02:32:51.577Z,93.63
2022-11-24T02:35:18.785Z,94.20
2022-11-24T02:37:45.248Z,93.74
2022-11-24T02:40:15.527Z,93.26
2022-11-24T02:42:46.292Z,94.34
2022-11-24T02:45:16.502Z,94.65
2022-11-24T02:47:43.208Z,93.42
2022-11-24T02:50:09.917Z,94.17
2022-11-24T02:52:36.380Z,93.84
2022-11-24T02:55:04.042Z,93.88
2022-11-24T02:57:30.581Z,94.24
2022-11-24T02:59:57.162Z,93.48
2022-11-24T03:02:23.786Z,94.46
2022-11-24T03:04:50.375Z,94.10
2022-11-24T03:07:16.862Z,94.30
2022-11-24T03:09:43.477Z,93.65
2022-11-24T03:12:09.990Z,93.83
2022-11-24T03:14:36.828Z,94.00
2022-11-24T03:17:04.115Z,94.60
2022-11-24T03:19:30.620Z,95.34
2022-11-24T03:21:57.102Z,94.90
2022-11-24T03:24:23.565Z,95.30
2022-11-24T03:26:50.157Z,95.11
2022-11-24T03:29:16.927Z,94.93
2022-11-24T03:31:43.530Z,94.75
2022-11-24T03:34:10.289Z,94.22
2022-11-24T03:36:36.822Z,94.36
2022-11-24T03:39:03.361Z,94.99
2022-11-24T03:41:29.864Z,94.50
2022-11-24T03:43:56.368Z,93.87
2022-11-24T03:46:22.954Z,93.89
2022-11-24T03:48:49.421Z,94.79
2022-11-24T03:51:15.890Z,94.51
2022-11-24T03:53:42.470Z,95.17
2022-11-24T03:56:09.273Z,94.77
2022-11-24T03:58:35.847Z,94.71
2022-11-24T04:01:03.524Z,95.49
2022-11-24T04:03:30.120Z,94.53
2022-11-24T04:05:56.584Z,94.73
2022-11-24T04:08:23.191Z,94.51
2022-11-24T04:10:53.951Z,94.68
2022-11-24T04:13:22.748Z,94.89
2022-11-24T04:15:49.359Z,95.25
2022-11-24T04:18:15.843Z,94.75
2022-11-24T04:20:42.832Z,95.31
2022-11-24T04:23:09.852Z,94.78
2022-11-24T04:25:36.795Z,95.80
2022-11-24T04:28:03.597Z,95.59
2022-11-24T04:30:30.203Z,95.69
2022-11-24T04:32:57.336Z,95.05
2022-11-24T04:35:23.944Z,95.10
2022-11-24T04:37:50.525Z,95.20
2022-11-24T04:40:17.601Z,94.57
2022-11-24T04:42:44.107Z,95.91
2022-11-24T04:45:11.470Z,95.20
2022-11-24T04:47:38.463Z,95.29
2022-11-24T04:50:07.662Z,95.93
2022-11-24T04:52:34.415Z,95.67
2022-11-24T04:55:00.948Z,96.02
2022-11-24T04:57:27.859Z,95.90
2022-11-24T04:59:55.161Z,95.08
2022-11-24T05:02:22.363Z,94.83
2022-11-24T05:04:48.982Z,94.72
2022-11-24T05:07:19.011Z,95.38
2022-11-24T05:10:05.759Z,95.18
2022-11-24T05:12:32.233Z,94.89
2022-11-24T05:14:59.683Z,96.39
2022-11-24T05:17:34.911Z,95.97
2022-11-24T05:20:01.731Z,96.20
2022-11-24T05:22:29.337Z,95.54
2022-11-24T05:24:55.890Z,96.12
2022-11-24T05:27:22.730Z,95.83
2022-11-24T05:29:49.400Z,96.42
2022-11-24T05:32:15.904Z,96.34
2022-11-24T05:34:42.360Z,95.83
2022-11-24T05:37:08.998Z,95.50
2022-11-24T05:39:36.588Z,97.25
2022-11-24T05:42:25.104Z,96.00
2022-11-24T05:44:52.303Z,95.88
2022-11-24T05:47:19.249Z,95.67
2022-11-24T05:49:45.762Z,97.32
2022-11-24T05:52:12.346Z,96.19
2022-11-24T05:54:38.926Z,96.82
2022-11-24T05:57:05.404Z,95.90
2022-11-24T05:59:32.078Z,96.32
2022-11-24T06:01:58.645Z,96.47
2022-11-24T06:04:25.317Z,95.83
2022-11-24T06:06:52.134Z,96.56
2022-11-24T06:09:18.650Z,96.77
2022-11-24T06:11:47.582Z,96.42
2022-11-24T06:14:14.499Z,96.85
2022-11-24T06:16:41.112Z,96.88
2022-11-24T06:19:07.714Z,95.42
2022-11-24T06:21:34.180Z,96.65
2022-11-24T06:24:00.693Z,95.50
2022-11-24T06:26:27.617Z,96.34
2022-11-24T06:28:54.260Z,95.73
2022-11-24T06:31:20.830Z,96.35
2022-11-24T06:33:47.626Z,95.96
2022-11-24T06:36:14.892Z,96.17
2022-11-24T06:38:41.421Z,95.99
2022-11-24T06:41:12.171Z,97.04
2022-11-24T06:43:38.713Z,95.94
2022-11-24T06:46:05.564Z,96.56
2022-11-24T06:48:32.606Z,96.34
2022-11-24T06:51:04.054Z,96.48
2022-11-24T06:53:32.245Z,96.07
2022-11-24T06:56:02.526Z,96.37
2022-11-24T06:58:29.004Z,96.18
2022-11-24T07:00:55.550Z,94.81
2022-11-24T07:03:22.185Z,95.85
2022-11-24T07:05:48.972Z,95.08
2022-11-24T07:08:17.996Z,95.30
2022-11-24T07:10:45.000Z,96.67
2022-11-24T07:13:11.462Z,96.68
2022-11-24T07:15:37.932Z,97.25
2022-11-24T07:18:04.549Z,97.51
2022-11-24T07:20:31.089Z,97.41
2022-11-24T07:22:58.316Z,97.32
2022-11-24T07:25:25.841Z,97.46
2022-11-24T07:27:59.606Z,97.40
2022-11-24T07:30:27.681Z,96.93
2022-11-24T07:33:03.845Z,98.01
2022-11-24T07:35:30.843Z,97.36
2022-11-24T07:37:58.770Z,97.69
2022-11-24T07:40:26.653Z,97.01
2022-11-24T07:42:53.883Z,96.49
2022-11-24T07:45:21.152Z,96.89
2022-11-24T07:47:47.606Z,97.41
2022-11-24T07:50:14.199Z,96.96
2022-11-24T07:52:40.880Z,96.27
2022-11-24T07:55:08.067Z,96.24
2022-11-24T07:57:34.928Z,96.77
2022-11-24T08:00:01.881Z,96.20
2022-11-24T08:02:28.310Z,96.38
2022-11-24T08:04:54.828Z,96.70
2022-11-24T08:07:21.444Z,96.48
2022-11-24T08:09:50.244Z,96.43
2022-11-24T08:12:21.459Z,96.89
2022-11-24T08:14:49.952Z,96.97
2022-11-24T08:17:17.573Z,96.92
2022-11-24T08:19:44.353Z,96.86
2022-11-24T08:22:10.828Z,96.92
2022-11-24T08:24:37.833Z,96.66
2022-11-24T08:27:04.412Z,96.07
2022-11-24T08:29:31.226Z,96.43
2022-11-24T08:31:58.116Z,96.62
2022-11-24T08:34:26.121Z,96.50
2022-11-24T08:36:52.686Z,96.62
2022-11-24T08:39:20.312Z,96.37
2022-11-24T08:41:46.812Z,96.32
2022-11-24T08:44:15.889Z,96.27
2022-11-24T08:47:03.591Z,97.11
2022-11-24T08:49:30.048Z,95.39
2022-11-24T08:51:57.778Z,96.31
2022-11-24T08:54:25.707Z,96.10
2022-11-24T08:56:52.290Z,96.15
2022-11-24T08:59:18.967Z,96.31
2022-11-24T09:01:45.571Z,95.43
2022-11-24T09:04:12.221Z,96.31
2022-11-24T09:06:38.722Z,94.53
2022-11-24T09:09:05.182Z,95.66
2022-11-24T09:11:33.702Z,95.92
2022-11-24T09:14:00.187Z,96.00
2022-11-24T09:16:28.939Z,94.74
2022-11-24T09:18:57.610Z,94.62
2022-11-24T09:21:24.456Z,94.92
2022-11-24T09:23:52.669Z,93.65
2022-11-24T09:26:25.292Z,95.26
2022-11-24T09:28:56.268Z,93.62
2022-11-24T09:31:25.657Z,93.53
2022-11-24T09:33:53.084Z,93.11
2022-11-24T09:36:21.093Z,93.35
2022-11-24T09:38:47.916Z,94.09
2022-11-24T09:41:17.299Z,93.80
2022-11-24T09:44:07.433Z,92.39
2022-11-24T09:47:08.130Z,93.33
2022-11-24T09:49:43.285Z,93.12
2022-11-24T09:52:18.505Z,90.99
2022-11-24T09:54:56.670Z,93.62
2022-11-24T09:57:26.740Z,91.71
2022-11-24T10:00:11.830Z,92.25
2022-11-24T10:02:38.497Z,93.11
2022-11-24T10:05:06.848Z,92.11
2022-11-24T10:08:00.532Z,92.84
2022-11-24T10:10:50.803Z,92.49
2022-11-24T10:13:34.682Z,92.00
2022-11-24T10:16:09.287Z,92.76
2022-11-24T10:18:45.077Z,92.13
2022-11-24T10:21:17.672Z,93.04
2022-11-24T10:23:57.159Z,92.76
2022-11-24T10:26:36.246Z,93.33
2022-11-24T10:29:13.806Z,92.83
2022-11-24T10:31:43.309Z,91.21
2022-11-24T10:34:16.919Z,92.43
2022-11-24T10:37:00.499Z,90.79
2022-11-24T10:39:42.202Z,91.18
2022-11-24T10:42:28.796Z,90.45
2022-11-24T10:45:15.640Z,91.16
2022-11-24T10:47:44.328Z,90.60
2022-11-24T10:50:36.241Z,89.45
2022-11-24T10:53:14.877Z,89.38
2022-11-24T10:55:59.656Z,89.61
2022-11-24T10:58:36.070Z,87.90
2022-11-24T11:01:13.708Z,87.10
2022-11-24T11:03:48.748Z,88.28
2022-11-24T11:06:22.137Z,87.16
2022-11-24T11:08:48.681Z,86.85
2022-11-24T11:11:28.980Z,83.83
2022-11-24T11:14:04.587Z,86.95
2022-11-24T11:16:53.618Z,87.61
2022-11-24T11:19:49.503Z,86.88
2022-11-24T11:22:35.806Z,86.53
2022-11-24T11:25:24.283Z,88.65
2022-11-24T11:27:50.828Z,84.67
2022-11-24T11:35:51.220Z,83.74
2022-11-24T11:38:18.541Z,84.12
2022-11-24T11:40:48.698Z,83.66
2022-11-24T11:43:34.214Z,81.62
2022-11-24T11:46:10.303Z,82.97
2022-11-24T11:48:43.649Z,82.77
2022-11-24T11:51:25.916Z,83.14
2022-11-24T11:54:01.746Z,82.22
2022-11-24T11:56:35.772Z,82.86
2022-11-24T11:59:33.140Z,82.43
2022-11-24T12:02:33.423Z,85.41
2022-11-24T12:05:05.184Z,83.35
2022-11-24T12:08:11.601Z,80.04
2022-11-24T12:10:48.106Z,80.74
2022-11-24T12:13:31.409Z,79.39
2022-11-24T12:16:16.753Z,79.49
2022-11-24T12:19:02.838Z,79.38
2022-11-24T12:21:36.079Z,80.99
2022-11-24T12:24:34.864Z,79.17
2022-11-24T12:27:11.247Z,79.46
2022-11-24T12:29:52.181Z,78.79
2022-11-24T12:32:30.871Z,80.29
2022-11-24T12:35:08.964Z,79.87
2022-11-24T12:37:41.393Z,79.43
2022-11-24T12:41:25.452Z,79.97
2022-11-24T12:43:59.734Z,79.43
2022-11-24T12:46:38.376Z,81.14
2022-11-24T12:49:23.207Z,81.00
2022-11-24T12:51:59.794Z,79.83
2022-11-24T12:54:36.667Z,79.33
2022-11-24T12:57:21.618Z,80.83
2022-11-24T12:59:54.465Z,78.96
2022-11-24T13:02:30.014Z,79.72
2022-11-24T13:05:00.948Z,79.91
2022-11-24T13:07:44.040Z,79.43
2022-11-24T13:10:54.279Z,77.57
2022-11-24T13:13:17.427Z,79.31
2022-11-24T13:16:07.069Z,80.03
2022-11-24T13:19:17.121Z,77.54
2022-11-24T13:21:45.436Z,79.39
2022-11-24T13:24:19.209Z,79.51
2022-11-24T13:26:53.341Z,79.04
2022-11-24T13:29:39.286Z,81.35
2022-11-24T13:32:05.685Z,78.49
2022-11-24T13:34:45.576Z,80.43
2022-11-24T13:37:35.060Z,79.05
2022-11-24T13:40:26.427Z,79.82
2022-11-24T13:43:01.324Z,79.98
2022-11-24T13:45:40.925Z,80.15
2022-11-24T13:48:20.173Z,81.60
2022-11-24T13:50:49.782Z,78.82
2022-11-24T13:53:22.290Z,80.25
2022-11-24T13:56:00.165Z,78.18
2022-11-24T13:58:36.191Z,78.29
2022-11-24T14:01:05.689Z,78.67
2022-11-24T14:03:38.514Z,78.97
2022-11-24T14:06:05.809Z,78.02
2022-11-24T14:08:38.212Z,78.87
2022-11-24T14:11:14.540Z,80.03
2022-11-24T14:13:41.032Z,78.88
2022-11-24T14:16:10.657Z,79.79
2022-11-24T14:18:39.459Z,79.99
2022-11-24T14:21:27.063Z,78.98
2022-11-24T14:23:54.994Z,79.13
2022-11-24T14:26:30.621Z,78.86
2022-11-24T14:29:12.156Z,79.25
2022-11-24T14:31:38.706Z,79.64
2022-11-24T14:34:11.411Z,79.13
2022-11-24T14:36:41.822Z,80.15
2022-11-24T14:39:14.084Z,79.26
2022-11-24T14:41:43.344Z,79.09
2022-11-24T14:44:19.112Z,79.46
2022-11-24T14:46:45.971Z,79.30
2022-11-24T14:49:21.327Z,80.72
2022-11-24T14:51:56.478Z,80.43
2022-11-24T14:54:23.857Z,80.68
2022-11-24T14:56:59.458Z,79.68
2022-11-24T14:59:28.879Z,79.86
2022-11-24T15:01:57.005Z,79.98
2022-11-24T15:05:02.190Z,80.51
2022-11-24T15:07:26.984Z,80.52
2022-11-24T15:09:58.130Z,80.45
2022-11-24T15:12:36.312Z,81.08
2022-11-24T15:15:08.920Z,81.93
2022-11-24T15:17:35.496Z,81.86
2022-11-24T15:20:09.418Z,83.21
2022-11-24T15:22:41.925Z,83.97
2022-11-24T15:25:27.042Z,84.68
2022-11-24T15:27:53.677Z,83.88
2022-11-24T15:30:20.333Z,83.51
2022-11-24T15:32:57.332Z,84.74
2022-11-24T15:35:25.387Z,84.50
2022-11-24T15:37:52.288Z,83.38
2022-11-24T15:40:19.230Z,84.57
2022-11-24T15:42:56.885Z,83.38
2022-11-24T15:45:26.484Z,83.25
2022-11-24T15:47:53.080Z,83.28
2022-11-24T15:50:20.134Z,81.19
2022-11-24T15:52:48.347Z,80.74
2022-11-24T15:55:20.391Z,79.51
2022-11-24T15:57:47.304Z,80.57
2022-11-24T16:00:19.504Z,79.73
2022-11-24T16:02:46.286Z,80.66
2022-11-24T16:05:14.000Z,80.81
2022-11-24T16:07:40.659Z,81.46
2022-11-24T16:10:14.763Z,80.90
2022-11-24T16:12:41.258Z,81.68
2022-11-24T16:15:08.164Z,81.31
2022-11-24T16:17:34.733Z,81.60
2022-11-24T16:20:01.233Z,82.12
2022-11-24T16:22:27.682Z,81.77
2022-11-24T16:24:54.121Z,82.60
2022-11-24T16:27:20.580Z,82.37
2022-11-24T16:29:47.042Z,82.57
2022-11-24T16:32:13.572Z,84.06
2022-11-24T16:34:40.048Z,84.40
2022-11-24T16:37:06.519Z,84.26
2022-11-24T16:39:32.980Z,85.24
2022-11-24T16:41:59.418Z,84.85
2022-11-24T16:44:25.872Z,85.03
2022-11-24T16:46:52.349Z,84.50
2022-11-24T16:49:18.915Z,84.45
2022-11-24T16:51:45.417Z,84.27
2022-11-24T16:54:12.023Z,84.30
2022-11-24T16:56:38.503Z,83.80
2022-11-24T16:59:05.358Z,83.41
2022-11-24T17:01:32.894Z,84.11
2022-11-24T17:04:00.252Z,84.19
2022-11-24T17:06:27.121Z,84.08
2022-11-24T17:08:55.384Z,83.91
2022-11-24T17:11:24.253Z,84.22
2022-11-24T17:13:51.126Z,83.66
2022-11-24T17:16:22.293Z,83.93
2022-11-24T17:18:49.276Z,84.40
2022-11-24T17:21:18.782Z,84.74
2022-11-24T17:23:45.761Z,84.16
2022-11-24T17:26:14.976Z,85.01
2022-11-24T17:28:42.524Z,85.22
2022-11-24T17:31:28.658Z,86.67
2022-11-24T17:33:57.101Z,85.45
2022-11-24T17:36:23.616Z,84.74
2022-11-24T17:38:50.453Z,85.84
2022-11-24T17:41:17.864Z,86.47
2022-11-24T17:43:48.481Z,86.26
2022-11-24T17:46:14.940Z,86.71
2022-11-24T17:48:41.570Z,87.21
2022-11-24T17:51:12.915Z,87.12
2022-11-24T17:53:41.345Z,87.04
2022-11-24T17:56:11.369Z,87.23
2022-11-24T17:58:42.696Z,86.52
2022-11-24T18:01:10.913Z,86.24
2022-11-24T18:03:39.449Z,87.09
2022-11-24T18:06:14.286Z,86.53
2022-11-24T18:08:43.541Z,87.00
2022-11-24T18:11:12.926Z,86.27
2022-11-24T18:13:56.452Z,87.74
2022-11-24T18:16:28.125Z,87.62
2022-11-24T18:19:08.478Z,87.77
2022-11-24T18:21:44.675Z,88.19
2022-11-24T18:24:12.484Z,87.53
2022-11-24T18:26:40.815Z,87.17
2022-11-24T18:29:08.423Z,86.71
2022-11-24T18:31:35.830Z,86.89
2022-11-24T18:34:04.430Z,88.79
2022-11-24T18:36:31.571Z,87.80
2022-11-24T18:39:01.930Z,88.12
2022-11-24T18:41:28.384Z,88.49
2022-11-24T18:43:54.894Z,88.54
2022-11-24T18:46:21.587Z,87.52
2022-11-24T18:48:48.247Z,87.88
2022-11-24T18:51:14.901Z,87.60
2022-11-24T18:53:42.446Z,87.50
2022-11-24T18:56:13.216Z,88.23
2022-11-24T18:58:40.089Z,87.19
2022-11-24T19:01:07.610Z,87.14
2022-11-24T19:03:36.896Z,88.48
2022-11-24T19:06:04.779Z,88.40
2022-11-24T19:08:31.613Z,87.75
2022-11-24T19:10:58.298Z,88.44
2022-11-24T19:13:24.752Z,87.89
2022-11-24T19:15:52.009Z,87.50
2022-11-24T19:18:19.831Z,87.58
2022-11-24T19:20:46.406Z,87.70
2022-11-24T19:23:13.001Z,87.45
2022-11-24T19:25:39.457Z,87.94
2022-11-24T19:28:05.997Z,87.69
2022-11-24T19:30:32.449Z,87.44
2022-11-24T19:32:58.915Z,87.01
2022-11-24T19:35:25.557Z,87.18
2022-11-24T19:37:51.999Z,87.84
2022-11-24T19:40:18.546Z,88.12
2022-11-24T19:42:45.007Z,87.04
2022-11-24T19:45:11.475Z,87.45
2022-11-24T19:47:38.150Z,86.88
2022-11-24T19:50:10.216Z,86.84
2022-11-24T19:52:37.084Z,88.03
2022-11-24T19:55:03.744Z,86.48
2022-11-24T19:57:30.188Z,86.98
2022-11-24T19:59:56.740Z,86.94
2022-11-24T20:02:23.346Z,87.34
2022-11-24T20:04:49.849Z,87.64
2022-11-24T20:07:16.750Z,87.75
2022-11-24T20:09:43.229Z,86.83
2022-11-24T20:12:09.850Z,86.73
2022-11-24T20:14:36.741Z,87.16
2022-11-24T20:17:04.603Z,86.95
2022-11-24T20:19:32.688Z,88.06
2022-11-24T20:22:00.151Z,87.04
2022-11-24T20:24:26.614Z,88.05
2022-11-24T20:26:58.868Z,88.14
2022-11-24T20:29:25.904Z,87.90
2022-11-24T20:31:54.734Z,86.91
2022-11-24T20:34:22.307Z,87.23
2022-11-24T20:36:49.245Z,87.57
2022-11-24T20:39:18.965Z,88.08
2022-11-24T20:41:45.547Z,87.59
2022-11-24T20:44:17.104Z,88.84
2022-11-24T20:46:45.371Z,88.30
2022-11-24T20:49:14.911Z,87.53
2022-11-24T20:51:46.921Z,88.44
2022-11-24T20:54:14.500Z,88.48
2022-11-24T20:56:42.948Z,88.71
2022-11-24T20:59:16.030Z,88.47
2022-11-24T21:01:45.375Z,88.43
2022-11-24T21:04:16.519Z,88.87
2022-11-24T21:06:43.097Z,88.79
2022-11-24T21:09:10.308Z,87.65
2022-11-24T21:11:38.141Z,88.33
2022-11-24T21:14:05.550Z,88.08
2022-11-24T21:16:40.167Z,88.57
2022-11-24T21:19:10.179Z,87.60
2022-11-24T21:21:37.623Z,88.06
2022-11-24T21:24:25.700Z,88.61
2022-11-24T21:26:52.799Z,88.54
2022-11-24T21:29:22.199Z,88.83
2022-11-24T21:31:48.959Z,88.50
2022-11-24T21:34:18.340Z,88.79
2022-11-24T21:36:45.392Z,88.23
2022-11-24T21:39:13.701Z,88.95
2022-11-24T21:41:40.829Z,88.70
2022-11-24T21:44:07.358Z,88.71
2022-11-24T21:46:40.443Z,88.33
2022-11-24T21:49:09.081Z,88.86
2022-11-24T21:51:35.558Z,88.88
2022-11-24T21:54:02.097Z,88.63
2022-11-24T21:56:28.629Z,88.47
2022-11-24T21:58:57.323Z,89.11
2022-11-24T22:01:27.224Z,88.62
2022-11-24T22:03:54.383Z,88.59
2022-11-24T22:06:21.291Z,88.88
2022-11-24T22:08:48.247Z,87.95
2022-11-24T22:11:20.927Z,88.33
2022-11-24T22:13:48.771Z,88.62
2022-11-24T22:16:17.790Z,88.65
2022-11-24T22:18:45.530Z,88.63
2022-11-24T22:21:17.641Z,88.28
2022-11-24T22:23:44.206Z,87.97
2022-11-24T22:26:12.464Z,88.86
2022-11-24T22:28:39.535Z,87.39
2022-11-24T22:31:11.885Z,87.90
2022-11-24T22:33:39.295Z,87.49
2022-11-24T22:36:06.731Z,87.91
2022-11-24T22:38:34.416Z,87.25
2022-11-24T22:41:02.605Z,87.31
2022-11-24T22:43:31.612Z,87.37
2022-11-24T22:46:03.116Z,86.63
2022-11-24T22:48:29.621Z,87.32
2022-11-24T22:51:04.656Z,87.20
2022-11-24T22:53:31.145Z,87.12
2022-11-24T22:56:01.298Z,87.22
2022-11-24T22:58:27.871Z,87.28
2022-11-24T23:00:54.302Z,86.30
2022-11-24T23:03:20.859Z,86.58
2022-11-24T23:05:47.502Z,87.26
2022-11-24T23:08:13.960Z,86.63
2022-11-24T23:10:40.403Z,86.41
2022-11-24T23:13:06.970Z,86.18
2022-11-24T23:15:33.414Z,86.83
2022-11-24T23:17:59.910Z,86.25
2022-11-24T23:20:26.449Z,86.94
2022-11-24T23:22:53.195Z,86.42
2022-11-24T23:25:19.629Z,86.52
2022-11-24T23:27:46.077Z,86.14
2022-11-24T23:30:12.630Z,87.04
2022-11-24T23:32:39.195Z,85.96
2022-11-24T23:35:09.659Z,87.02
2022-11-24T23:38:06.036Z,86.47
2022-11-24T23:40:26.673Z,86.43
2022-11-24T23:42:53.111Z,86.83
2022-11-24T23:45:19.549Z,86.24
2022-11-24T23:47:46.025Z,86.50
2022-11-24T23:50:12.562Z,86.71
2022-11-24T23:52:39.067Z,86.63
2022-11-24T23:55:05.918Z,86.22
2022-11-24T23:57:32.352Z,87.05
2022-11-24T23:59:58.784Z,86.95
